createdAt,value
2023-03-21T00:01:14.032Z,100277.16
2023-03-21T00:04:18.482Z,100269.34
2023-03-21T00:07:22.437Z,100276.63
2023-03-21T00:10:39.034Z,100263.25
2023-03-21T00:13:45.553Z,100254.03
2023-03-21T00:16:53.342Z,100267.19
2023-03-21T00:19:58.086Z,100269.28
2023-03-21T00:23:05.354Z,100271.94
2023-03-21T00:26:11.014Z,100267.38
2023-03-21T00:29:14.719Z,100265.22
2023-03-21T00:32:19.745Z,100268.31
2023-03-21T00:38:48.910Z,100268.97
2023-03-21T00:41:52.879Z,100267.06
2023-03-21T00:44:57.471Z,100266.19
2023-03-21T00:48:02.027Z,100255.63
2023-03-21T00:51:14.199Z,100276.44
2023-03-21T00:54:19.199Z,100266.63
2023-03-21T00:57:37.550Z,100268.81
2023-03-21T01:00:43.690Z,100278.91
2023-03-21T01:03:51.805Z,100291.69
2023-03-21T01:06:59.213Z,100293.91
2023-03-21T01:10:03.332Z,100274.75
2023-03-21T01:13:07.630Z,100286.38
2023-03-21T01:16:12.469Z,100286.69
2023-03-21T01:19:50.334Z,100285.22
2023-03-21T01:22:44.437Z,100285.28
2023-03-21T01:25:50.430Z,100287.03
2023-03-21T01:28:56.438Z,100275.91
2023-03-21T01:32:00.816Z,100271.72
2023-03-21T01:35:05.646Z,100282.91
2023-03-21T01:38:10.927Z,100275.09
2023-03-21T01:41:41.897Z,100255.34
2023-03-21T01:45:02.483Z,100279.19
2023-03-21T01:48:16.539Z,100243.50
2023-03-21T01:51:29.309Z,100262.69
2023-03-21T01:54:39.406Z,100251.97
2023-03-21T01:58:05.395Z,100255.81
2023-03-21T02:01:39.244Z,100249.91
2023-03-21T02:04:51.592Z,100255.44
2023-03-21T02:07:58.845Z,100252.59
2023-03-21T02:11:05.063Z,100249.44
2023-03-21T02:14:28.954Z,100247.53
2023-03-21T02:18:40.129Z,100237.56
2023-03-21T02:22:16.273Z,100239.16
2023-03-21T02:25:46.168Z,100240.66
2023-03-21T02:29:03.822Z,100234.41
2023-03-21T02:32:34.964Z,100246.03
2023-03-21T02:36:15.250Z,100241.66
2023-03-21T02:39:31.479Z,100242.91
2023-03-21T02:43:04.308Z,100238.97
2023-03-21T02:46:33.531Z,100194.19
2023-03-21T02:50:17.337Z,100224.84
2023-03-21T02:53:24.658Z,100222.19
2023-03-21T02:56:29.555Z,100227.75
2023-03-21T02:59:44.372Z,100220.06
2023-03-21T03:03:08.179Z,100211.34
2023-03-21T03:06:30.399Z,100217.22
2023-03-21T03:09:56.471Z,100220.13
2023-03-21T03:13:26.665Z,100218.69
2023-03-21T03:16:40.318Z,100214.97
2023-03-21T03:20:19.991Z,100201.09
2023-03-21T03:23:27.567Z,100201.47
2023-03-21T03:26:41.113Z,100203.75
2023-03-21T03:29:50.283Z,100209.28
2023-03-21T03:33:04.294Z,100203.41
2023-03-21T03:36:30.355Z,100194.53
2023-03-21T03:39:47.306Z,100201.25
2023-03-21T03:42:58.311Z,100196.69
2023-03-21T03:46:18.871Z,100208.38
2023-03-21T03:49:27.374Z,100193.91
2023-03-21T03:52:42.056Z,100191.00
2023-03-21T03:55:54.744Z,100188.75
2023-03-21T03:58:59.737Z,100174.81
2023-03-21T04:02:22.404Z,100174.81
2023-03-21T04:05:28.277Z,100163.88
2023-03-21T04:08:33.012Z,100177.13
2023-03-21T04:11:37.950Z,100167.78
2023-03-21T04:14:46.148Z,100163.91
2023-03-21T04:17:55.328Z,100177.47
2023-03-21T04:21:01.431Z,100160.97
2023-03-21T04:24:08.336Z,100148.88
2023-03-21T04:27:12.337Z,100159.72
2023-03-21T04:30:20.581Z,100156.88
2023-03-21T04:33:42.806Z,100138.16
2023-03-21T04:36:47.531Z,100133.47
2023-03-21T04:39:52.678Z,100149.44
2023-03-21T04:42:58.394Z,100137.44
2023-03-21T04:46:04.230Z,100126.28
2023-03-21T04:49:09.178Z,100142.34
2023-03-21T04:52:13.196Z,100107.16
2023-03-21T04:55:17.689Z,100115.13
2023-03-21T04:58:23.585Z,100129.13
2023-03-21T05:01:31.320Z,100124.53
2023-03-21T05:04:35.470Z,100122.31
2023-03-21T05:07:41.065Z,100122.75
2023-03-21T05:10:45.611Z,100123.84
2023-03-21T05:13:50.076Z,100117.72
2023-03-21T05:16:57.058Z,100117.13
2023-03-21T05:20:01.722Z,100114.00
2023-03-21T05:23:05.687Z,100108.78
2023-03-21T05:26:10.823Z,100104.47
2023-03-21T05:29:26.051Z,100095.28
2023-03-21T05:32:38.026Z,100105.63
2023-03-21T05:35:46.191Z,100102.44
2023-03-21T05:38:52.208Z,100098.28
2023-03-21T05:41:57.001Z,100102.53
2023-03-21T05:45:02.078Z,100093.28
2023-03-21T05:48:09.151Z,100087.44
2023-03-21T05:51:28.844Z,100091.34
2023-03-21T05:54:33.820Z,100083.91
2023-03-21T05:57:41.717Z,100043.03
2023-03-21T06:00:51.367Z,100075.63
2023-03-21T06:04:06.109Z,100065.50
2023-03-21T06:07:12.547Z,100061.25
2023-03-21T06:10:18.576Z,100057.16
2023-03-21T06:13:26.428Z,100040.19
2023-03-21T06:16:32.989Z,100067.91
2023-03-21T06:19:40.536Z,100060.44
2023-03-21T06:22:49.236Z,100056.50
2023-03-21T06:25:53.822Z,100056.22
2023-03-21T06:29:03.743Z,100050.94
2023-03-21T06:32:08.487Z,100033.88
2023-03-21T06:35:13.301Z,100054.03
2023-03-21T06:38:17.652Z,100005.03
2023-03-21T06:41:22.315Z,100042.38
2023-03-21T06:44:34.920Z,100040.66
2023-03-21T06:47:44.158Z,100031.41
2023-03-21T06:51:02.444Z,100030.06
2023-03-21T06:54:12.908Z,100016.34
2023-03-21T06:57:23.695Z,100021.19
2023-03-21T07:00:28.538Z,100033.53
2023-03-21T07:03:33.800Z,100026.88
2023-03-21T07:06:39.364Z,100030.59
2023-03-21T07:09:44.039Z,100026.97
2023-03-21T07:12:48.482Z,100034.03
2023-03-21T07:16:10.887Z,100032.81
2023-03-21T07:19:16.575Z,100028.84
2023-03-21T07:22:20.690Z,100030.47
2023-03-21T07:25:25.310Z,100027.59
2023-03-21T07:28:31.673Z,100021.81
2023-03-21T07:31:36.550Z,100019.22
2023-03-21T07:34:41.032Z,100024.22
2023-03-21T07:37:46.366Z,100027.66
2023-03-21T07:40:53.633Z,100021.38
2023-03-21T07:43:58.790Z,100020.53
2023-03-21T07:47:10.383Z,100012.66
2023-03-21T07:50:15.916Z,100012.47
2023-03-21T07:53:21.656Z,100016.31
2023-03-21T07:56:25.468Z,100014.59
2023-03-21T07:59:29.740Z,99997.28
2023-03-21T08:02:34.334Z,100013.09
2023-03-21T08:05:39.755Z,100015.25
2023-03-21T08:08:44.409Z,100014.09
2023-03-21T08:11:48.825Z,99999.03
2023-03-21T08:14:53.476Z,100013.38
2023-03-21T08:17:59.675Z,100005.75
2023-03-21T08:21:04.284Z,100009.50
2023-03-21T08:24:09.328Z,100017.66
2023-03-21T08:27:13.968Z,100018.06
2023-03-21T08:30:22.064Z,100016.06
2023-03-21T08:33:26.453Z,100021.53
2023-03-21T08:36:32.404Z,100021.34
2023-03-21T08:39:36.756Z,100017.63
2023-03-21T08:42:42.527Z,100013.63
2023-03-21T08:45:46.613Z,100012.50
2023-03-21T08:48:51.088Z,100012.03
2023-03-21T08:51:59.117Z,100011.56
2023-03-21T08:55:03.712Z,100006.78
2023-03-21T08:58:08.369Z,100008.97
2023-03-21T09:01:16.485Z,100016.84
2023-03-21T09:04:21.377Z,99997.91
2023-03-21T09:07:27.211Z,100019.56
2023-03-21T09:10:31.957Z,100004.91
2023-03-21T09:13:36.389Z,100007.97
2023-03-21T09:16:42.109Z,100002.69
2023-03-21T09:19:48.041Z,100026.78
2023-03-21T09:22:53.547Z,100030.09
2023-03-21T09:25:58.266Z,100046.88
2023-03-21T09:29:04.541Z,100035.19
2023-03-21T09:32:09.276Z,100031.50
2023-03-21T09:35:13.862Z,100030.59
2023-03-21T09:38:18.513Z,100043.94
2023-03-21T09:41:42.035Z,100051.88
2023-03-21T09:45:02.568Z,100053.81
2023-03-21T09:48:18.376Z,100062.56
2023-03-21T09:51:25.094Z,99985.97
2023-03-21T09:54:34.672Z,100050.59
2023-03-21T09:57:45.457Z,100048.03
2023-03-21T10:00:57.474Z,100050.66
2023-03-21T10:04:06.310Z,100059.25
2023-03-21T10:07:18.888Z,100037.00
2023-03-21T10:10:33.848Z,100062.84
2023-03-21T10:14:12.913Z,100060.28
2023-03-21T10:17:44.353Z,100068.44
2023-03-21T10:20:48.840Z,100080.84
2023-03-21T10:23:56.175Z,100058.53
2023-03-21T10:27:01.886Z,100083.47
2023-03-21T10:30:08.398Z,100087.69
2023-03-21T10:33:16.665Z,100092.88
2023-03-21T10:36:33.903Z,100070.28
2023-03-21T10:39:40.444Z,100094.91
2023-03-21T10:42:45.660Z,100094.69
2023-03-21T10:45:50.702Z,100086.44
2023-03-21T10:48:55.641Z,100076.56
2023-03-21T10:52:04.124Z,100104.06
2023-03-21T10:55:27.200Z,100119.09
2023-03-21T10:58:36.464Z,100114.31
2023-03-21T11:01:44.373Z,100116.94
2023-03-21T11:04:49.895Z,100096.81
2023-03-21T11:08:16.421Z,100109.94
2023-03-21T11:11:34.365Z,100102.69
2023-03-21T11:14:44.758Z,100104.16
2023-03-21T11:17:49.425Z,100094.28
2023-03-21T11:20:59.723Z,100085.34
2023-03-21T11:24:05.259Z,100091.69
2023-03-21T11:27:09.966Z,100100.41
2023-03-21T11:30:23.465Z,100099.97
2023-03-21T11:33:54.411Z,100094.91
2023-03-21T11:37:04.796Z,100107.75
2023-03-21T11:40:25.455Z,100101.75
2023-03-21T11:43:39.882Z,100106.28
2023-03-21T11:46:45.149Z,100102.84
2023-03-21T11:49:55.681Z,100104.78
2023-03-21T11:53:28.844Z,100103.91
2023-03-21T11:56:48.399Z,100100.41
2023-03-21T11:59:58.933Z,100073.38
2023-03-21T12:03:47.728Z,100111.91
2023-03-21T12:07:01.959Z,100111.06
2023-03-21T12:10:12.575Z,100110.19
2023-03-21T12:13:46.112Z,100116.38
2023-03-21T12:17:05.742Z,100087.50
2023-03-21T12:20:15.584Z,100103.19
2023-03-21T12:23:39.410Z,100103.28
2023-03-21T12:27:36.193Z,100116.44
2023-03-21T12:30:46.238Z,100107.66
2023-03-21T12:34:28.681Z,100081.41
2023-03-21T12:38:10.014Z,100111.19
2023-03-21T12:41:28.140Z,100116.44
2023-03-21T12:44:40.412Z,100111.22
2023-03-21T12:47:51.780Z,100100.72
2023-03-21T12:51:01.892Z,100125.22
2023-03-21T12:54:13.277Z,100064.94
2023-03-21T12:57:51.058Z,100112.13
2023-03-21T13:01:05.653Z,100123.41
2023-03-21T13:04:43.703Z,100123.44
2023-03-21T13:07:55.141Z,100112.13
2023-03-21T13:11:01.270Z,100108.63
2023-03-21T13:14:24.218Z,100123.47
2023-03-21T13:17:47.567Z,100078.91
2023-03-21T13:20:57.200Z,100138.31
2023-03-21T13:24:26.786Z,100127.84
2023-03-21T13:27:40.811Z,100133.94
2023-03-21T13:30:45.613Z,100147.94
2023-03-21T13:33:52.635Z,100126.06
2023-03-21T13:36:58.772Z,100142.69
2023-03-21T13:40:13.762Z,100139.19
2023-03-21T13:43:55.580Z,100139.22
2023-03-21T13:47:24.151Z,100119.09
2023-03-21T13:50:34.830Z,100138.31
2023-03-21T13:54:10.035Z,100085.91
2023-03-21T13:57:24.336Z,100127.81
2023-03-21T14:00:31.283Z,100126.97
2023-03-21T14:03:37.060Z,100131.31
2023-03-21T14:06:45.218Z,100133.94
2023-03-21T14:09:53.136Z,100139.19
2023-03-21T14:12:59.635Z,100140.94
2023-03-21T14:16:16.997Z,100114.63
2023-03-21T14:19:21.644Z,100140.94
2023-03-21T14:22:25.734Z,100139.19
2023-03-21T14:25:44.377Z,100135.69
2023-03-21T14:28:53.227Z,100149.50
2023-03-21T14:31:59.191Z,100137.03
2023-03-21T14:35:03.115Z,100138.69
2023-03-21T14:38:09.822Z,100130.63
2023-03-21T14:41:29.602Z,100121.88
2023-03-21T14:44:56.505Z,100103.66
2023-03-21T14:48:02.852Z,100121.19
2023-03-21T14:51:11.811Z,100125.69
2023-03-21T14:54:18.623Z,100132.81
2023-03-21T14:57:28.218Z,100130.16
2023-03-21T15:00:34.101Z,100142.41
2023-03-21T15:03:38.399Z,100146.91
2023-03-21T15:07:02.890Z,100159.16
2023-03-21T15:10:18.795Z,100148.69
2023-03-21T15:13:27.732Z,100143.34
2023-03-21T15:16:33.211Z,100152.72
2023-03-21T15:19:41.083Z,100149.22
2023-03-21T15:22:57.825Z,100156.84
2023-03-21T15:26:05.806Z,100142.31
2023-03-21T15:29:10.783Z,100118.59
2023-03-21T15:32:18.908Z,100160.59
2023-03-21T15:35:29.043Z,100145.13
2023-03-21T15:38:45.818Z,100174.47
2023-03-21T15:42:05.165Z,100167.63
2023-03-21T15:45:23.831Z,100141.56
2023-03-21T15:48:30.037Z,100184.44
2023-03-21T15:51:34.553Z,100188.00
2023-03-21T15:54:56.488Z,100185.50
2023-03-21T15:58:06.033Z,100211.69
2023-03-21T16:01:21.793Z,100207.34
2023-03-21T16:04:27.577Z,100204.72
2023-03-21T16:07:34.987Z,100215.22
2023-03-21T16:10:39.916Z,100218.75
2023-03-21T16:13:44.934Z,100223.13
2023-03-21T16:16:50.838Z,100209.97
2023-03-21T16:19:56.218Z,100161.88
2023-03-21T16:23:00.821Z,100217.81
2023-03-21T16:26:06.017Z,100192.44
2023-03-21T16:29:14.542Z,100213.44
2023-03-21T16:32:19.395Z,100215.19
2023-03-21T16:35:25.810Z,100207.34
2023-03-21T16:38:30.580Z,100212.59
2023-03-21T16:41:34.958Z,100216.09
2023-03-21T16:44:40.331Z,100222.22
2023-03-21T16:47:45.569Z,100223.09
2023-03-21T16:50:50.361Z,100227.50
2023-03-21T16:53:55.100Z,100226.63
2023-03-21T16:57:00.358Z,100217.88
2023-03-21T17:00:08.269Z,100234.50
2023-03-21T17:03:22.342Z,100229.22
2023-03-21T17:06:30.043Z,100244.94
2023-03-21T17:09:34.468Z,100233.53
2023-03-21T17:12:38.460Z,100239.66
2023-03-21T17:15:43.140Z,100236.19
2023-03-21T17:18:48.603Z,100217.88
2023-03-21T17:21:53.320Z,100233.59
2023-03-21T17:24:57.343Z,100225.72
2023-03-21T17:28:01.612Z,100239.69
2023-03-21T17:31:13.195Z,100230.91
2023-03-21T17:34:18.076Z,100248.31
2023-03-21T17:37:22.890Z,100243.94
2023-03-21T17:40:30.483Z,100230.91
2023-03-21T17:43:34.422Z,100230.97
2023-03-21T17:46:38.889Z,100245.81
2023-03-21T17:49:43.619Z,100237.91
2023-03-21T17:52:50.571Z,100237.84
2023-03-21T17:55:54.990Z,100255.28
2023-03-21T17:59:00.784Z,100251.69
2023-03-21T18:02:04.894Z,100234.22
2023-03-21T18:05:10.515Z,100252.56
2023-03-21T18:08:14.691Z,100261.41
2023-03-21T18:11:19.763Z,100259.63
2023-03-21T18:14:27.862Z,100251.72
2023-03-21T18:17:33.369Z,100238.59
2023-03-21T18:20:51.648Z,100229.81
2023-03-21T18:23:57.471Z,100208.81
2023-03-21T18:27:01.734Z,100223.66
2023-03-21T18:30:36.205Z,100220.13
2023-03-21T18:33:36.449Z,100220.09
2023-03-21T18:36:41.119Z,100200.88
2023-03-21T18:39:46.387Z,100221.84
2023-03-21T18:43:44.147Z,100225.25
2023-03-21T18:46:16.536Z,100240.16
2023-03-21T18:50:02.114Z,100237.50
2023-03-21T18:52:45.948Z,100241.75
2023-03-21T18:55:52.419Z,100236.59
2023-03-21T18:58:57.054Z,100239.19
2023-03-21T19:02:02.567Z,100240.03
2023-03-21T19:05:07.814Z,100240.06
2023-03-21T19:08:12.513Z,100233.16
2023-03-21T19:11:21.975Z,100235.75
2023-03-21T19:14:26.013Z,100241.94
2023-03-21T19:20:55.496Z,100262.81
2023-03-21T19:24:25.007Z,100250.59
2023-03-21T19:27:24.545Z,100276.03
2023-03-21T19:30:28.902Z,100269.00
2023-03-21T19:33:33.375Z,100238.41
2023-03-21T19:36:38.089Z,100264.66
2023-03-21T19:39:42.561Z,100276.88
2023-03-21T19:42:46.720Z,100277.81
2023-03-21T19:45:51.166Z,100276.06
2023-03-21T19:48:56.887Z,100268.16
2023-03-21T19:52:01.596Z,100263.81
2023-03-21T19:55:07.054Z,100245.41
2023-03-21T19:58:12.273Z,100267.22
2023-03-21T20:01:17.830Z,100274.13
2023-03-21T20:04:23.213Z,100277.81
2023-03-21T20:07:28.569Z,100281.34
2023-03-21T20:10:32.980Z,100288.34
2023-03-21T20:13:40.038Z,100292.72
2023-03-21T20:16:47.571Z,100290.06
2023-03-21T20:19:52.068Z,100279.63
2023-03-21T20:23:07.044Z,100291.84
2023-03-21T20:26:14.174Z,100291.94
2023-03-21T20:32:44.880Z,100304.97
2023-03-21T20:39:23.311Z,100311.16
2023-03-21T20:42:28.610Z,100326.13
2023-03-21T20:45:34.476Z,100319.16
2023-03-21T20:48:40.530Z,100307.78
2023-03-21T20:52:44.561Z,100332.31
2023-03-21T20:55:12.300Z,100342.72
2023-03-21T20:58:51.635Z,100333.06
2023-03-21T21:01:46.015Z,100279.75
2023-03-21T21:05:21.611Z,100313.81
2023-03-21T21:08:17.291Z,100306.00
2023-03-21T21:12:05.023Z,100313.91
2023-03-21T21:14:44.945Z,100324.38
2023-03-21T21:18:07.086Z,100336.63
2023-03-21T21:21:12.225Z,100320.94
2023-03-21T21:24:17.063Z,100311.31
2023-03-21T21:27:21.534Z,100349.78
2023-03-21T21:30:26.157Z,100337.47
2023-03-21T21:33:30.643Z,100330.47
2023-03-21T21:36:35.006Z,100321.53
2023-03-21T21:39:39.352Z,100330.28
2023-03-21T21:42:45.114Z,100309.28
2023-03-21T21:45:51.083Z,100316.19
2023-03-21T21:48:55.613Z,100326.63
2023-03-21T21:52:00.648Z,100307.44
2023-03-21T21:55:07.248Z,100325.72
2023-03-21T21:58:14.332Z,100336.97
2023-03-21T22:01:18.269Z,100324.66
2023-03-21T22:04:28.618Z,100335.03
2023-03-21T22:07:33.285Z,100335.88
2023-03-21T22:10:37.347Z,100336.66
2023-03-21T22:13:41.916Z,100346.09
2023-03-21T22:16:47.576Z,100341.59
2023-03-21T22:20:04.679Z,100329.66
2023-03-21T22:23:10.487Z,100330.25
2023-03-21T22:26:15.394Z,100326.31
2023-03-21T22:29:20.010Z,100321.78
2023-03-21T22:32:24.913Z,100313.81
2023-03-21T22:35:29.484Z,100304.72
2023-03-21T22:38:35.354Z,100312.31
2023-03-21T22:41:39.644Z,100309.00
2023-03-21T22:44:43.650Z,100313.31
2023-03-21T22:47:48.142Z,100310.09
2023-03-21T22:50:52.566Z,100318.22
2023-03-21T22:53:57.380Z,100318.38
2023-03-21T22:57:01.929Z,100306.19
2023-03-21T23:00:14.011Z,100295.38
2023-03-21T23:03:18.136Z,100293.22
2023-03-21T23:06:23.177Z,100301.78
2023-03-21T23:09:28.128Z,100308.09
2023-03-21T23:12:32.620Z,100298.19
2023-03-21T23:15:36.542Z,100295.41
2023-03-21T23:18:40.794Z,100295.00
2023-03-21T23:21:45.333Z,100287.97
2023-03-21T23:24:50.096Z,100285.91
2023-03-21T23:27:54.362Z,100293.16
2023-03-21T23:30:58.736Z,100281.31
2023-03-21T23:34:03.710Z,100276.72
2023-03-21T23:37:08.174Z,100273.22
2023-03-21T23:40:13.375Z,100283.69
2023-03-21T23:43:17.852Z,100286.16
2023-03-21T23:46:22.580Z,100280.16
2023-03-21T23:49:27.304Z,100294.13
2023-03-21T23:52:31.627Z,100296.72
2023-03-21T23:55:38.840Z,100308.13
2023-03-21T23:58:42.658Z,100292.44
